Niagara Falls International Airport
KIAG : rendu visible

Aérodrome :











RETROUVEZ-NOUS SUR...

 
LOGIN :

S'inscrire | Disclaimer

   EN    FR    IT 

 









Légende :    VFR   VFR Marginal   IFR   IFR Intensif   IFR Très Intensif
Visi : 
Plafond : 
>= 8 km
>= 3000ft
5 à 8 km
1000 à 3000 ft
1500m à 5 km
500 à 1000 ft
800 à 1500m
200 à 500 ft
< 800m
< 200 ft
Symboles :   Orages  Brouillard  Fortes neiges  Fortes précipitations  Vent > 20 kt







- Altitude de l'aérodrome : 589 ft
- Code IATA : IAG


KIAG - Niagara Falls International

DERNIER METAR :
  • 210553Z AUTO 00000KT OVC003 07/06 A2978 RMK AO2 RAB0455E31 SLP094 P0000 60004 T00670056 10067 20067 53002 $

METARs EXPIRÉS :
  • 210501Z AUTO 28006KT -RA BKN003 OVC009 07/06 A2978 RMK AO2 RAB0455 CIG 002V007 P0000 T00670061 $
  • 210450Z AUTO 30008KT BKN005 BKN009 OVC013 07/06 A2977 RMK AO2 CIG 002V007 $
  • 210436Z AUTO 30006KT FEW003 OVC013 07/06 A2977 RMK AO2 T00670056 $
  • 210353Z AUTO 21006KT OVC003 07/06 A2978 RMK AO2 SLP092 T00670061 $
  • 210341Z AUTO 20005KT OVC005 07/06 A2977 RMK AO2 CIG 003V006 T00670061 $

TAF KIAG
Valide du 21 à 06h jusqu'au 22 à 06h UTC


210521Z 2106/2206 26005KT 4SM BR OVC003
FM210900 23005KT 2SM BR OVC003
FM211400 23008KT P6SM OVC007
FM211900 25009KT P6SM BKN015
FM220000 22006KT P6SM BKN025
FIR KZOB / Amérique du Nord



MET'MAP, la Météo Aéronautique d'un coup d'oeil ! - Copyright ORBIFLY Décembre 2007 - Disclaimer

ORBIFLY MET'MAP TEAM :

Programmation & Développement : Alexandra Zaïnal
Conception & Développement : Baudouin d'Aumeries
Co-Programmation & Développement : Marc-Olivier Méhu
Soutien technique & logistique : Manuel Goepfert

Contact : metmap@orbifly.com




SOURCES & CREDITS :

   NOAA       Earth
Advisory